createdAt,value
2023-03-25T00:00:24.655Z,74.42
2023-03-25T00:02:53.534Z,74.55
2023-03-25T00:05:23.133Z,74.90
2023-03-25T00:07:53.319Z,74.55
2023-03-25T00:10:22.424Z,74.72
2023-03-25T00:12:50.147Z,74.37
2023-03-25T00:15:18.024Z,74.42
2023-03-25T00:17:46.167Z,73.91
2023-03-25T00:20:14.510Z,73.40
2023-03-25T00:22:44.267Z,73.99
2023-03-25T00:25:17.267Z,73.50
2023-03-25T00:27:48.767Z,73.72
2023-03-25T00:30:17.740Z,73.94
2023-03-25T00:32:49.997Z,73.87
2023-03-25T00:35:19.362Z,73.71
2023-03-25T00:37:48.070Z,74.03
2023-03-25T00:40:15.948Z,73.83
2023-03-25T00:42:44.896Z,73.75
2023-03-25T00:45:14.055Z,74.38
2023-03-25T00:47:42.282Z,74.06
2023-03-25T00:50:11.014Z,74.65
2023-03-25T00:52:38.812Z,74.21
2023-03-25T00:55:09.258Z,74.21
2023-03-25T00:57:37.260Z,73.91
2023-03-25T01:00:07.948Z,74.88
2023-03-25T01:02:39.495Z,74.84
2023-03-25T01:05:09.184Z,74.68
2023-03-25T01:07:37.432Z,73.99
2023-03-25T01:10:06.429Z,74.56
2023-03-25T01:12:34.376Z,74.70
2023-03-25T01:15:02.130Z,74.19
2023-03-25T01:17:29.910Z,74.48
2023-03-25T01:19:59.179Z,74.27
2023-03-25T01:22:26.921Z,74.20
2023-03-25T01:24:54.590Z,74.32
2023-03-25T01:27:24.524Z,73.88
2023-03-25T01:29:54.555Z,73.90
2023-03-25T01:32:22.369Z,73.90
2023-03-25T01:34:50.141Z,73.55
2023-03-25T01:37:19.351Z,73.57
2023-03-25T01:39:47.097Z,73.71
2023-03-25T01:42:14.858Z,73.76
2023-03-25T01:45:25.106Z,73.65
2023-03-25T01:48:01.259Z,73.40
2023-03-25T01:50:30.197Z,73.19
2023-03-25T01:53:02.701Z,72.86
2023-03-25T01:55:33.305Z,72.86
2023-03-25T01:58:02.969Z,72.74
2023-03-25T02:00:30.787Z,72.50
2023-03-25T02:03:00.215Z,72.49
2023-03-25T02:05:35.952Z,72.08
2023-03-25T02:08:09.155Z,71.93
2023-03-25T02:10:38.343Z,71.19
2023-03-25T02:13:07.776Z,71.39
2023-03-25T02:15:49.594Z,71.40
2023-03-25T02:18:34.836Z,71.22
2023-03-25T02:21:46.421Z,71.28
2023-03-25T02:24:46.824Z,70.93
2023-03-25T02:27:28.436Z,70.46
2023-03-25T02:30:10.466Z,71.09
2023-03-25T02:33:30.874Z,70.78
2023-03-25T02:36:30.796Z,70.82
2023-03-25T02:39:04.207Z,70.71
2023-03-25T02:41:40.720Z,71.05
2023-03-25T02:44:14.730Z,71.26
2023-03-25T02:46:47.972Z,71.40
2023-03-25T02:49:21.845Z,71.71
2023-03-25T02:51:55.587Z,71.43
2023-03-25T02:54:26.381Z,71.26
2023-03-25T02:56:57.571Z,71.49
2023-03-25T02:59:33.164Z,71.73
2023-03-25T03:02:04.173Z,71.48
2023-03-25T03:04:32.009Z,71.91
2023-03-25T03:06:59.829Z,72.13
2023-03-25T03:09:39.949Z,71.90
2023-03-25T03:12:20.816Z,71.89
2023-03-25T03:15:07.977Z,71.92
2023-03-25T03:17:43.927Z,71.80
2023-03-25T03:20:21.027Z,71.99
2023-03-25T03:22:55.294Z,71.97
2023-03-25T03:25:32.017Z,72.24
2023-03-25T03:28:06.184Z,72.16
2023-03-25T03:30:42.557Z,72.21
2023-03-25T03:33:15.809Z,72.34
2023-03-25T03:35:50.340Z,72.46
2023-03-25T03:38:22.099Z,72.41
2023-03-25T03:40:54.212Z,72.82
2023-03-25T03:43:27.778Z,72.88
2023-03-25T03:46:00.877Z,72.55
2023-03-25T03:48:33.307Z,73.36
2023-03-25T03:51:03.172Z,72.82
2023-03-25T03:53:35.933Z,73.36
2023-03-25T03:56:09.184Z,73.75
2023-03-25T03:58:41.882Z,74.53
2023-03-25T04:01:12.691Z,75.42
2023-03-25T04:03:45.280Z,74.38
2023-03-25T04:06:21.453Z,74.23
2023-03-25T04:08:58.984Z,74.76
2023-03-25T04:11:34.252Z,74.98
2023-03-25T04:14:03.956Z,74.34
2023-03-25T04:16:34.650Z,74.56
2023-03-25T04:19:03.965Z,74.87
2023-03-25T04:21:31.814Z,75.11
2023-03-25T04:24:01.428Z,74.66
2023-03-25T04:26:34.306Z,74.72
2023-03-25T04:29:02.219Z,74.67
2023-03-25T04:31:31.346Z,74.33
2023-03-25T04:34:00.468Z,74.93
2023-03-25T04:36:29.752Z,74.79
2023-03-25T04:38:57.556Z,75.08
2023-03-25T04:41:25.738Z,74.47
2023-03-25T04:43:54.876Z,74.80
2023-03-25T04:46:22.653Z,74.93
2023-03-25T04:48:50.632Z,74.33
2023-03-25T04:51:18.378Z,74.10
2023-03-25T04:53:46.293Z,74.19
2023-03-25T04:56:17.574Z,74.71
2023-03-25T04:58:46.203Z,76.01
2023-03-25T05:01:23.922Z,75.84
2023-03-25T05:03:51.897Z,75.81
2023-03-25T05:06:19.707Z,75.99
2023-03-25T05:08:47.407Z,75.90
2023-03-25T05:11:15.189Z,76.93
2023-03-25T05:13:43.004Z,75.57
2023-03-25T05:16:10.808Z,75.50
2023-03-25T05:18:39.987Z,74.53
2023-03-25T05:21:08.491Z,74.67
2023-03-25T05:23:36.434Z,74.08
2023-03-25T05:26:04.552Z,73.78
2023-03-25T05:28:32.307Z,73.41
2023-03-25T05:31:00.080Z,73.27
2023-03-25T05:33:27.805Z,73.76
2023-03-25T05:35:57.402Z,73.70
2023-03-25T05:38:25.576Z,73.99
2023-03-25T05:40:53.559Z,74.00
2023-03-25T05:43:22.797Z,73.61
2023-03-25T05:45:51.110Z,73.39
2023-03-25T05:48:19.245Z,73.38
2023-03-25T05:50:47.035Z,73.77
2023-03-25T05:53:16.599Z,73.56
2023-03-25T05:55:44.368Z,73.32
2023-03-25T05:58:12.159Z,73.45
2023-03-25T06:00:39.940Z,73.46
2023-03-25T06:03:08.818Z,73.34
2023-03-25T06:05:36.789Z,73.22
2023-03-25T06:08:04.538Z,73.01
2023-03-25T06:10:34.426Z,73.37
2023-03-25T06:13:02.277Z,72.87
2023-03-25T06:15:33.774Z,73.38
2023-03-25T06:18:01.908Z,73.08
2023-03-25T06:20:29.707Z,73.10
2023-03-25T06:22:57.417Z,73.00
2023-03-25T06:25:26.712Z,73.16
2023-03-25T06:27:58.010Z,73.12
2023-03-25T06:30:25.766Z,73.30
2023-03-25T06:32:55.959Z,72.76
2023-03-25T06:35:23.987Z,72.98
2023-03-25T06:37:51.888Z,73.20
2023-03-25T06:40:20.077Z,73.27
2023-03-25T06:42:47.842Z,72.53
2023-03-25T06:45:17.210Z,73.16
2023-03-25T06:47:45.170Z,72.49
2023-03-25T06:50:12.930Z,72.56
2023-03-25T06:52:40.697Z,72.77
2023-03-25T06:55:09.479Z,72.92
2023-03-25T06:57:37.824Z,73.21
2023-03-25T07:00:07.071Z,73.27
2023-03-25T07:02:36.261Z,72.90
2023-03-25T07:05:04.405Z,73.32
2023-03-25T07:07:32.366Z,73.22
2023-03-25T07:10:00.318Z,72.72
2023-03-25T07:12:28.115Z,72.80
2023-03-25T07:14:57.293Z,72.78
2023-03-25T07:17:25.449Z,72.92
2023-03-25T07:19:54.680Z,72.98
2023-03-25T07:22:22.416Z,73.10
2023-03-25T07:24:52.169Z,73.54
2023-03-25T07:27:20.521Z,73.38
2023-03-25T07:29:48.294Z,73.83
2023-03-25T07:32:16.088Z,73.23
2023-03-25T07:34:43.838Z,72.86
2023-03-25T07:37:12.997Z,73.02
2023-03-25T07:39:40.828Z,73.59
2023-03-25T07:42:08.642Z,73.38
2023-03-25T07:44:36.654Z,73.28
2023-03-25T07:47:04.702Z,73.33
2023-03-25T07:49:32.368Z,72.87
2023-03-25T07:52:00.302Z,72.17
2023-03-25T07:54:29.486Z,71.90
2023-03-25T07:56:57.614Z,71.63
2023-03-25T07:59:26.553Z,71.31
2023-03-25T08:01:55.949Z,70.03
2023-03-25T08:04:23.797Z,70.10
2023-03-25T08:06:51.771Z,69.18
2023-03-25T08:09:19.558Z,68.69
2023-03-25T08:11:49.511Z,67.77
2023-03-25T08:14:17.313Z,66.73
2023-03-25T08:16:45.335Z,66.29
2023-03-25T08:19:13.175Z,66.44
2023-03-25T08:21:41.282Z,66.52
2023-03-25T08:24:11.297Z,66.67
2023-03-25T08:26:39.754Z,66.09
2023-03-25T08:29:10.077Z,66.07
2023-03-25T08:31:38.947Z,66.03
2023-03-25T08:34:07.204Z,65.96
2023-03-25T08:36:39.466Z,65.91
2023-03-25T08:39:11.661Z,64.77
2023-03-25T08:41:39.898Z,66.05
2023-03-25T08:44:09.235Z,67.34
2023-03-25T08:46:37.622Z,67.12
2023-03-25T08:49:06.417Z,67.34
2023-03-25T08:51:35.605Z,67.18
2023-03-25T08:54:03.454Z,66.84
2023-03-25T08:56:31.250Z,67.75
2023-03-25T08:58:58.968Z,68.78
2023-03-25T09:01:28.112Z,68.34
2023-03-25T09:03:57.792Z,68.37
2023-03-25T09:06:26.098Z,68.29
2023-03-25T09:08:55.985Z,68.45
2023-03-25T09:11:34.184Z,68.05
2023-03-25T09:14:04.989Z,67.32
2023-03-25T09:16:35.046Z,67.13
2023-03-25T09:19:02.909Z,66.89
2023-03-25T09:21:30.822Z,68.04
2023-03-25T09:23:58.549Z,68.61
2023-03-25T09:26:26.476Z,70.06
2023-03-25T09:28:55.583Z,70.25
2023-03-25T09:31:23.548Z,70.76
2023-03-25T09:33:52.807Z,70.97
2023-03-25T09:36:20.756Z,71.17
2023-03-25T09:38:48.543Z,71.76
2023-03-25T09:41:39.798Z,71.15
2023-03-25T09:44:18.425Z,71.42
2023-03-25T09:46:46.873Z,71.50
2023-03-25T09:49:20.101Z,71.69
2023-03-25T09:51:50.632Z,72.98
2023-03-25T09:54:26.297Z,72.99
2023-03-25T09:56:56.658Z,73.67
2023-03-25T09:59:32.453Z,74.12
2023-03-25T10:02:08.034Z,74.46
2023-03-25T10:04:56.326Z,75.90
2023-03-25T10:07:41.257Z,76.70
2023-03-25T10:10:17.980Z,76.71
2023-03-25T10:12:50.385Z,76.56
2023-03-25T10:15:31.031Z,76.23
2023-03-25T10:18:11.357Z,74.93
2023-03-25T10:20:52.213Z,75.32
2023-03-25T10:23:29.523Z,74.65
2023-03-25T10:26:02.260Z,74.06
2023-03-25T10:28:36.112Z,74.64
2023-03-25T10:31:05.512Z,75.29
2023-03-25T10:33:37.216Z,75.60
2023-03-25T10:36:13.259Z,76.46
2023-03-25T10:38:43.669Z,77.49
2023-03-25T10:41:21.392Z,78.17
2023-03-25T10:43:49.328Z,78.33
2023-03-25T10:46:26.152Z,78.43
2023-03-25T10:48:54.101Z,78.27
2023-03-25T10:51:31.353Z,79.13
2023-03-25T10:54:00.116Z,78.95
2023-03-25T10:56:32.668Z,79.74
2023-03-25T10:59:08.754Z,78.85
2023-03-25T11:01:39.578Z,79.00
2023-03-25T11:04:10.713Z,77.39
2023-03-25T11:06:42.801Z,76.18
2023-03-25T11:09:18.222Z,76.73
2023-03-25T11:11:47.450Z,76.87
2023-03-25T11:14:16.660Z,77.65
2023-03-25T11:16:47.926Z,77.33
2023-03-25T11:19:23.880Z,76.98
2023-03-25T11:21:58.398Z,77.09
2023-03-25T11:24:32.762Z,77.09
2023-03-25T11:27:02.863Z,76.89
2023-03-25T11:29:33.123Z,75.59
2023-03-25T11:32:08.503Z,73.50
2023-03-25T11:34:41.945Z,71.90
2023-03-25T11:37:19.837Z,71.16
2023-03-25T11:39:55.102Z,70.95
2023-03-25T11:42:33.073Z,70.11
2023-03-25T11:45:03.490Z,70.19
2023-03-25T11:47:34.091Z,70.08
2023-03-25T11:50:03.072Z,69.39
2023-03-25T11:52:39.186Z,69.17
2023-03-25T11:55:07.805Z,67.91
2023-03-25T11:57:41.328Z,63.24
2023-03-25T12:00:24.128Z,65.21
2023-03-25T12:03:01.175Z,65.06
2023-03-25T12:05:30.266Z,65.98
2023-03-25T12:08:15.084Z,66.41
2023-03-25T12:10:53.315Z,65.25
2023-03-25T12:13:34.307Z,65.03
2023-03-25T12:16:16.231Z,63.27
2023-03-25T12:19:03.267Z,62.90
2023-03-25T12:21:44.568Z,62.41
2023-03-25T12:24:29.134Z,62.15
2023-03-25T12:27:12.108Z,61.83
2023-03-25T12:29:48.962Z,61.54
2023-03-25T12:32:29.265Z,61.24
2023-03-25T12:35:14.573Z,60.82
2023-03-25T12:38:01.993Z,61.83
2023-03-25T12:40:44.565Z,61.46
2023-03-25T12:43:16.971Z,61.08
2023-03-25T12:45:58.861Z,62.02
2023-03-25T12:48:49.045Z,62.66
2023-03-25T12:51:24.676Z,61.64
2023-03-25T12:54:01.205Z,61.13
2023-03-25T12:56:52.634Z,61.29
2023-03-25T12:59:38.262Z,61.11
2023-03-25T13:02:16.899Z,60.76
2023-03-25T13:05:06.172Z,60.28
2023-03-25T13:07:38.029Z,59.77
2023-03-25T13:10:14.624Z,59.44
2023-03-25T13:12:49.625Z,58.94
2023-03-25T13:15:26.944Z,60.21
2023-03-25T13:17:59.971Z,60.62
2023-03-25T13:20:31.331Z,61.10
2023-03-25T13:23:02.404Z,60.78
2023-03-25T13:25:36.646Z,61.14
2023-03-25T13:28:11.385Z,62.60
2023-03-25T13:30:42.252Z,62.46
2023-03-25T13:33:16.672Z,63.16
2023-03-25T13:35:48.562Z,64.32
2023-03-25T13:38:21.066Z,66.47
2023-03-25T13:40:53.455Z,67.16
2023-03-25T13:43:30.270Z,67.64
2023-03-25T13:46:03.802Z,68.82
2023-03-25T13:48:40.550Z,67.90
2023-03-25T13:51:09.388Z,69.29
2023-03-25T13:53:41.610Z,71.86
2023-03-25T13:56:41.547Z,70.67
2023-03-25T13:59:31.190Z,70.83
2023-03-25T14:02:33.599Z,70.13
2023-03-25T14:05:46.586Z,69.84
2023-03-25T14:08:52.926Z,70.46
2023-03-25T14:11:26.457Z,70.25
2023-03-25T14:13:58.263Z,70.64
2023-03-25T14:16:33.351Z,70.47
2023-03-25T14:19:04.906Z,69.75
2023-03-25T14:21:41.560Z,68.57
2023-03-25T14:24:14.941Z,68.64
2023-03-25T14:26:48.041Z,68.60
2023-03-25T14:29:24.985Z,68.13
2023-03-25T14:32:07.395Z,68.32
2023-03-25T14:34:35.850Z,68.72
2023-03-25T14:37:19.221Z,68.27
2023-03-25T14:39:47.086Z,67.24
2023-03-25T14:42:31.095Z,66.28
2023-03-25T14:45:42.203Z,65.96
2023-03-25T14:48:30.610Z,66.32
2023-03-25T14:51:22.902Z,66.16
2023-03-25T14:53:55.816Z,67.02
2023-03-25T14:56:26.785Z,68.34
2023-03-25T14:58:59.250Z,68.65
2023-03-25T15:01:31.312Z,68.55
2023-03-25T15:04:18.142Z,68.24
2023-03-25T15:06:49.207Z,67.23
2023-03-25T15:09:19.639Z,67.59
2023-03-25T15:11:57.212Z,67.96
2023-03-25T15:14:30.391Z,67.45
2023-03-25T15:17:13.797Z,67.92
2023-03-25T15:20:15.821Z,66.74
2023-03-25T15:22:43.720Z,66.69
2023-03-25T15:25:16.905Z,66.67
2023-03-25T15:28:05.953Z,66.96
2023-03-25T15:30:58.572Z,66.94
2023-03-25T15:33:47.495Z,66.94
2023-03-25T15:36:43.526Z,65.82
2023-03-25T15:39:35.805Z,66.50
2023-03-25T15:42:23.403Z,66.35
2023-03-25T15:45:12.559Z,66.11
2023-03-25T15:47:54.981Z,66.40
2023-03-25T15:50:39.021Z,66.88
2023-03-25T15:53:42.791Z,66.86
2023-03-25T15:56:14.710Z,66.92
2023-03-25T15:58:51.137Z,67.04
2023-03-25T16:01:25.885Z,66.69
2023-03-25T16:04:00.674Z,65.57
2023-03-25T16:06:29.629Z,65.12
2023-03-25T16:09:00.454Z,64.94
2023-03-25T16:11:29.536Z,65.07
2023-03-25T16:14:08.356Z,65.02
2023-03-25T16:16:39.694Z,65.34
2023-03-25T16:19:12.832Z,64.67
2023-03-25T16:21:41.294Z,64.47
2023-03-25T16:24:13.908Z,64.62
2023-03-25T16:26:44.232Z,64.29
2023-03-25T16:29:19.287Z,64.51
2023-03-25T16:31:56.554Z,64.24
2023-03-25T16:34:25.298Z,64.82
2023-03-25T16:36:54.187Z,64.93
2023-03-25T16:39:26.066Z,65.10
2023-03-25T16:42:02.292Z,65.67
2023-03-25T16:44:30.495Z,66.43
2023-03-25T16:46:58.643Z,66.07
2023-03-25T16:49:32.516Z,66.41
2023-03-25T16:52:04.829Z,66.40
2023-03-25T16:54:38.063Z,66.92
2023-03-25T16:57:08.740Z,66.87
2023-03-25T16:59:39.110Z,66.90
2023-03-25T17:02:26.776Z,67.19
2023-03-25T17:04:58.218Z,67.42
2023-03-25T17:07:29.632Z,67.27
2023-03-25T17:10:00.657Z,67.05
2023-03-25T17:12:30.673Z,67.18
2023-03-25T17:15:07.033Z,66.83
2023-03-25T17:17:41.765Z,66.94
2023-03-25T17:20:20.330Z,67.13
2023-03-25T17:23:04.195Z,67.12
2023-03-25T17:25:37.030Z,67.46
2023-03-25T17:28:29.353Z,67.76
2023-03-25T17:30:57.949Z,68.44
2023-03-25T17:33:35.413Z,68.99
2023-03-25T17:36:04.938Z,69.54
2023-03-25T17:38:36.708Z,69.72
2023-03-25T17:41:08.010Z,70.06
2023-03-25T17:43:37.963Z,70.04
2023-03-25T17:46:07.834Z,70.78
2023-03-25T17:48:36.705Z,70.86
2023-03-25T17:51:29.615Z,70.74
2023-03-25T17:54:06.686Z,70.80
2023-03-25T17:56:38.497Z,70.83
2023-03-25T17:59:09.197Z,70.61
2023-03-25T18:01:37.694Z,70.56
2023-03-25T18:04:06.219Z,70.51
2023-03-25T18:06:34.019Z,70.25
2023-03-25T18:09:07.056Z,69.90
2023-03-25T18:11:36.332Z,69.84
2023-03-25T18:14:04.441Z,69.37
2023-03-25T18:16:32.385Z,69.25
2023-03-25T18:19:00.591Z,69.40
2023-03-25T18:21:33.007Z,68.84
2023-03-25T18:24:01.451Z,68.89
2023-03-25T18:26:29.585Z,69.12
2023-03-25T18:28:58.756Z,68.68
2023-03-25T18:31:26.702Z,68.88
2023-03-25T18:33:55.797Z,68.92
2023-03-25T18:36:23.880Z,69.01
2023-03-25T18:38:52.079Z,68.80
2023-03-25T18:41:21.747Z,69.30
2023-03-25T18:43:49.469Z,68.76
2023-03-25T18:46:22.945Z,68.97
2023-03-25T18:48:50.856Z,69.08
2023-03-25T18:51:18.728Z,68.84
2023-03-25T18:53:47.327Z,69.08
2023-03-25T18:56:15.180Z,68.95
2023-03-25T18:58:43.889Z,69.10
2023-03-25T19:01:15.616Z,69.25
2023-03-25T19:03:45.472Z,69.00
2023-03-25T19:06:14.633Z,69.67
2023-03-25T19:08:44.446Z,69.55
2023-03-25T19:11:21.181Z,69.61
2023-03-25T19:13:50.589Z,70.19
2023-03-25T19:16:18.480Z,70.06
2023-03-25T19:18:48.067Z,71.18
2023-03-25T19:21:17.631Z,71.16
2023-03-25T19:23:45.669Z,72.13
2023-03-25T19:26:13.565Z,73.75
2023-03-25T19:28:46.677Z,76.07
2023-03-25T19:31:16.496Z,76.39
2023-03-25T19:33:44.421Z,75.98
2023-03-25T19:36:18.916Z,77.38
2023-03-25T19:38:47.005Z,77.40
2023-03-25T19:41:16.663Z,76.88
2023-03-25T19:43:44.648Z,77.74
2023-03-25T19:46:12.891Z,79.62
2023-03-25T19:48:40.888Z,79.48
2023-03-25T19:51:08.595Z,79.12
2023-03-25T19:53:37.927Z,79.43
2023-03-25T19:56:06.693Z,80.07
2023-03-25T19:58:35.558Z,80.60
2023-03-25T20:01:03.375Z,81.52
2023-03-25T20:03:33.080Z,81.84
2023-03-25T20:06:02.865Z,83.10
2023-03-25T20:08:31.898Z,82.49
2023-03-25T20:11:01.508Z,82.37
2023-03-25T20:13:29.357Z,82.05
2023-03-25T20:15:57.251Z,81.87
2023-03-25T20:18:25.093Z,80.96
2023-03-25T20:20:52.905Z,81.42
2023-03-25T20:23:20.641Z,80.63
2023-03-25T20:25:48.399Z,80.98
2023-03-25T20:28:18.522Z,80.07
2023-03-25T20:30:46.591Z,80.46
2023-03-25T20:33:14.446Z,80.86
2023-03-25T20:35:43.927Z,79.98
2023-03-25T20:38:14.198Z,79.71
2023-03-25T20:40:46.078Z,79.66
2023-03-25T20:43:15.128Z,80.50
2023-03-25T20:45:44.716Z,80.96
2023-03-25T20:48:12.596Z,80.63
2023-03-25T20:50:40.690Z,81.10
2023-03-25T20:53:08.895Z,81.61
2023-03-25T20:55:37.293Z,82.10
2023-03-25T20:58:05.770Z,82.60
2023-03-25T21:00:34.295Z,82.74
2023-03-25T21:03:03.818Z,83.62
2023-03-25T21:05:31.633Z,84.23
2023-03-25T21:07:59.439Z,84.79
2023-03-25T21:10:27.265Z,85.38
2023-03-25T21:12:55.079Z,85.51
2023-03-25T21:15:22.841Z,85.53
2023-03-25T21:17:50.888Z,85.93
2023-03-25T21:20:22.914Z,85.81
2023-03-25T21:22:52.879Z,85.46
2023-03-25T21:25:20.976Z,85.32
2023-03-25T21:27:52.446Z,85.57
2023-03-25T21:30:20.187Z,85.54
2023-03-25T21:32:47.951Z,85.62
2023-03-25T21:38:01.029Z,85.50
2023-03-25T21:40:39.978Z,84.69
2023-03-25T21:43:08.015Z,84.84
2023-03-25T21:45:35.812Z,84.40
2023-03-25T21:48:05.112Z,84.60
2023-03-25T21:50:34.281Z,84.48
2023-03-25T21:53:05.626Z,84.45
2023-03-25T21:55:35.664Z,84.19
2023-03-25T21:58:03.380Z,84.07
2023-03-25T22:00:31.127Z,84.51
2023-03-25T22:02:58.930Z,83.92
2023-03-25T22:05:31.148Z,83.93
2023-03-25T22:07:59.725Z,84.21
2023-03-25T22:10:28.825Z,84.37
2023-03-25T22:12:56.720Z,84.47
2023-03-25T22:15:24.449Z,84.36
2023-03-25T22:17:52.238Z,85.00
2023-03-25T22:20:20.525Z,84.95
2023-03-25T22:22:48.420Z,84.58
2023-03-25T22:25:16.183Z,84.87
2023-03-25T22:27:47.799Z,84.56
2023-03-25T22:30:16.732Z,84.67
2023-03-25T22:32:44.410Z,84.88
2023-03-25T22:35:14.126Z,85.12
2023-03-25T22:37:41.972Z,84.60
2023-03-25T22:40:11.823Z,84.44
2023-03-25T22:42:39.607Z,84.62
2023-03-25T22:45:09.711Z,84.78
2023-03-25T22:47:37.801Z,84.71
2023-03-25T22:50:06.600Z,84.50
2023-03-25T22:52:34.459Z,84.57
2023-03-25T22:55:02.259Z,84.95
2023-03-25T22:57:30.088Z,84.72
2023-03-25T22:59:57.852Z,84.90
2023-03-25T23:02:27.173Z,84.62
2023-03-25T23:04:56.469Z,84.55
2023-03-25T23:07:24.160Z,84.68
2023-03-25T23:09:51.880Z,84.56
2023-03-25T23:12:23.936Z,84.34
2023-03-25T23:14:54.342Z,84.51
2023-03-25T23:17:22.860Z,85.10
2023-03-25T23:19:52.516Z,84.92
2023-03-25T23:22:21.169Z,84.71
2023-03-25T23:24:48.935Z,84.92
2023-03-25T23:27:16.641Z,85.34
2023-03-25T23:29:44.858Z,85.74
2023-03-25T23:32:16.419Z,85.71
2023-03-25T23:34:45.272Z,85.37
2023-03-25T23:37:15.089Z,85.51
2023-03-25T23:39:46.098Z,86.04
2023-03-25T23:42:13.781Z,86.22
2023-03-25T23:44:41.759Z,86.39
2023-03-25T23:47:09.560Z,86.03
2023-03-25T23:49:38.600Z,86.38
2023-03-25T23:52:11.266Z,86.46
2023-03-25T23:54:41.522Z,86.48
2023-03-25T23:57:09.294Z,86.40
2023-03-25T23:59:37.011Z,86.75
